sensor_id;sensor_type;location;lat;lon;timestamp;P1;durP1;ratioP1;P2;durP2;ratioP2
35418;SDS011;21525;41.240;16.500;2022-07-30T00:00:20;20.75;;;10.68;;
35418;SDS011;21525;41.240;16.500;2022-07-30T00:02:46;17.77;;;9.27;;
35418;SDS011;21525;41.240;16.500;2022-07-30T00:05:13;15.63;;;8.95;;
35418;SDS011;21525;41.240;16.500;2022-07-30T00:07:38;14.30;;;7.75;;
35418;SDS011;21525;41.240;16.500;2022-07-30T00:10:05;15.10;;;8.18;;
35418;SDS011;21525;41.240;16.500;2022-07-30T00:12:31;10.90;;;7.30;;
35418;SDS011;21525;41.240;16.500;2022-07-30T00:14:57;10.95;;;7.05;;
35418;SDS011;21525;41.240;16.500;2022-07-30T00:17:22;14.30;;;7.82;;
35418;SDS011;21525;41.240;16.500;2022-07-30T00:19:48;14.15;;;7.63;;
35418;SDS011;21525;41.240;16.500;2022-07-30T00:22:14;17.55;;;8.07;;
35418;SDS011;21525;41.240;16.500;2022-07-30T00:24:40;15.13;;;7.25;;
35418;SDS011;21525;41.240;16.500;2022-07-30T00:27:06;14.50;;;7.05;;
35418;SDS011;21525;41.240;16.500;2022-07-30T00:29:32;11.13;;;6.85;;
35418;SDS011;21525;41.240;16.500;2022-07-30T00:31:58;16.80;;;7.50;;
35418;SDS011;21525;41.240;16.500;2022-07-30T00:34:23;14.13;;;7.60;;
35418;SDS011;21525;41.240;16.500;2022-07-30T00:36:50;13.30;;;7.55;;
35418;SDS011;21525;41.240;16.500;2022-07-30T00:39:16;15.88;;;7.47;;
35418;SDS011;21525;41.240;16.500;2022-07-30T00:41:56;11.95;;;7.55;;
35418;SDS011;21525;41.240;16.500;2022-07-30T00:44:22;14.07;;;7.57;;
35418;SDS011;21525;41.240;16.500;2022-07-30T00:46:48;13.73;;;7.03;;
35418;SDS011;21525;41.240;16.500;2022-07-30T00:49:14;12.35;;;7.57;;
35418;SDS011;21525;41.240;16.500;2022-07-30T00:51:40;11.93;;;7.18;;
35418;SDS011;21525;41.240;16.500;2022-07-30T00:54:06;14.85;;;6.88;;
35418;SDS011;21525;41.240;16.500;2022-07-30T00:56:32;13.18;;;7.22;;
35418;SDS011;21525;41.240;16.500;2022-07-30T00:58:58;9.40;;;6.07;;
35418;SDS011;21525;41.240;16.500;2022-07-30T01:01:24;11.60;;;6.80;;
35418;SDS011;21525;41.240;16.500;2022-07-30T01:03:50;11.50;;;7.10;;
35418;SDS011;21525;41.240;16.500;2022-07-30T01:06:16;9.70;;;5.95;;
35418;SDS011;21525;41.240;16.500;2022-07-30T01:08:42;9.98;;;6.45;;
35418;SDS011;21525;41.240;16.500;2022-07-30T01:11:08;8.23;;;5.88;;
35418;SDS011;21525;41.240;16.500;2022-07-30T01:13:41;13.82;;;6.72;;
35418;SDS011;21525;41.240;16.500;2022-07-30T01:16:08;14.10;;;6.10;;
35418;SDS011;21525;41.240;16.500;2022-07-30T01:18:34;12.65;;;6.15;;
35418;SDS011;21525;41.240;16.500;2022-07-30T01:21:23;11.02;;;6.07;;
35418;SDS011;21525;41.240;16.500;2022-07-30T01:24:00;11.32;;;5.93;;
35418;SDS011;21525;41.240;16.500;2022-07-30T01:26:49;11.52;;;5.65;;
35418;SDS011;21525;41.240;16.500;2022-07-30T01:29:16;9.15;;;5.60;;
35418;SDS011;21525;41.240;16.500;2022-07-30T01:31:43;10.38;;;6.53;;
35418;SDS011;21525;41.240;16.500;2022-07-30T01:34:11;8.20;;;5.57;;
35418;SDS011;21525;41.240;16.500;2022-07-30T01:36:41;10.27;;;5.88;;
35418;SDS011;21525;41.240;16.500;2022-07-30T01:39:09;10.95;;;5.95;;
35418;SDS011;21525;41.240;16.500;2022-07-30T01:41:37;10.32;;;6.00;;
35418;SDS011;21525;41.240;16.500;2022-07-30T01:44:04;8.40;;;5.70;;
35418;SDS011;21525;41.240;16.500;2022-07-30T01:46:31;12.23;;;6.43;;
35418;SDS011;21525;41.240;16.500;2022-07-30T01:48:58;10.25;;;5.82;;
35418;SDS011;21525;41.240;16.500;2022-07-30T01:51:29;10.77;;;5.93;;
35418;SDS011;21525;41.240;16.500;2022-07-30T01:53:56;10.18;;;5.90;;
35418;SDS011;21525;41.240;16.500;2022-07-30T01:56:24;9.30;;;5.72;;
35418;SDS011;21525;41.240;16.500;2022-07-30T01:58:53;8.38;;;5.68;;
35418;SDS011;21525;41.240;16.500;2022-07-30T02:01:26;9.55;;;5.80;;
35418;SDS011;21525;41.240;16.500;2022-07-30T02:03:57;11.07;;;6.30;;
35418;SDS011;21525;41.240;16.500;2022-07-30T02:06:30;12.13;;;6.13;;
35418;SDS011;21525;41.240;16.500;2022-07-30T02:09:00;13.50;;;7.15;;
35418;SDS011;21525;41.240;16.500;2022-07-30T02:11:31;15.68;;;7.63;;
35418;SDS011;21525;41.240;16.500;2022-07-30T02:14:24;9.90;;;6.75;;
35418;SDS011;21525;41.240;16.500;2022-07-30T02:16:53;17.75;;;7.78;;
35418;SDS011;21525;41.240;16.500;2022-07-30T02:19:22;18.15;;;7.57;;
35418;SDS011;21525;41.240;16.500;2022-07-30T02:21:57;12.75;;;6.85;;
35418;SDS011;21525;41.240;16.500;2022-07-30T02:24:30;12.88;;;6.90;;
35418;SDS011;21525;41.240;16.500;2022-07-30T02:27:00;12.55;;;6.65;;
35418;SDS011;21525;41.240;16.500;2022-07-30T02:29:33;16.23;;;10.15;;
35418;SDS011;21525;41.240;16.500;2022-07-30T02:32:03;10.57;;;8.10;;
35418;SDS011;21525;41.240;16.500;2022-07-30T02:34:33;14.82;;;9.95;;
35418;SDS011;21525;41.240;16.500;2022-07-30T02:37:02;17.00;;;12.18;;
35418;SDS011;21525;41.240;16.500;2022-07-30T02:39:30;18.40;;;13.27;;
35418;SDS011;21525;41.240;16.500;2022-07-30T02:41:58;11.07;;;9.00;;
35418;SDS011;21525;41.240;16.500;2022-07-30T02:44:25;17.67;;;8.38;;
35418;SDS011;21525;41.240;16.500;2022-07-30T02:46:55;12.18;;;8.18;;
35418;SDS011;21525;41.240;16.500;2022-07-30T02:49:26;17.90;;;8.50;;
35418;SDS011;21525;41.240;16.500;2022-07-30T02:51:55;12.85;;;7.07;;
35418;SDS011;21525;41.240;16.500;2022-07-30T02:54:22;10.93;;;6.05;;
35418;SDS011;21525;41.240;16.500;2022-07-30T02:56:52;12.85;;;6.15;;
35418;SDS011;21525;41.240;16.500;2022-07-30T02:59:19;10.23;;;6.25;;
35418;SDS011;21525;41.240;16.500;2022-07-30T03:01:47;17.50;;;6.95;;
35418;SDS011;21525;41.240;16.500;2022-07-30T03:04:15;10.07;;;6.72;;
35418;SDS011;21525;41.240;16.500;2022-07-30T03:06:43;16.77;;;7.07;;
35418;SDS011;21525;41.240;16.500;2022-07-30T03:09:09;11.02;;;6.97;;
35418;SDS011;21525;41.240;16.500;2022-07-30T03:11:36;11.27;;;6.60;;
35418;SDS011;21525;41.240;16.500;2022-07-30T03:14:03;10.25;;;6.75;;
35418;SDS011;21525;41.240;16.500;2022-07-30T03:16:30;11.88;;;7.05;;
35418;SDS011;21525;41.240;16.500;2022-07-30T03:19:01;10.57;;;6.30;;
35418;SDS011;21525;41.240;16.500;2022-07-30T03:21:31;10.05;;;6.30;;
35418;SDS011;21525;41.240;16.500;2022-07-30T03:23:59;12.20;;;7.18;;
35418;SDS011;21525;41.240;16.500;2022-07-30T03:26:27;9.98;;;6.68;;
35418;SDS011;21525;41.240;16.500;2022-07-30T03:28:54;9.65;;;6.65;;
35418;SDS011;21525;41.240;16.500;2022-07-30T03:31:21;18.08;;;7.28;;
35418;SDS011;21525;41.240;16.500;2022-07-30T03:33:47;11.90;;;7.15;;
35418;SDS011;21525;41.240;16.500;2022-07-30T03:36:14;9.45;;;7.20;;
35418;SDS011;21525;41.240;16.500;2022-07-30T03:38:42;12.18;;;7.47;;
35418;SDS011;21525;41.240;16.500;2022-07-30T03:41:09;13.65;;;8.02;;
35418;SDS011;21525;41.240;16.500;2022-07-30T03:43:37;12.18;;;7.95;;
35418;SDS011;21525;41.240;16.500;2022-07-30T03:46:05;17.05;;;8.45;;
35418;SDS011;21525;41.240;16.500;2022-07-30T03:48:37;9.93;;;6.97;;
35418;SDS011;21525;41.240;16.500;2022-07-30T03:51:05;13.07;;;7.97;;
35418;SDS011;21525;41.240;16.500;2022-07-30T03:56:25;11.45;;;7.57;;
35418;SDS011;21525;41.240;16.500;2022-07-30T03:59:14;10.52;;;7.80;;
35418;SDS011;21525;41.240;16.500;2022-07-30T04:01:41;20.92;;;10.68;;
35418;SDS011;21525;41.240;16.500;2022-07-30T04:04:42;18.20;;;9.45;;
35418;SDS011;21525;41.240;16.500;2022-07-30T04:07:09;17.45;;;9.05;;
35418;SDS011;21525;41.240;16.500;2022-07-30T04:09:35;17.15;;;8.82;;
35418;SDS011;21525;41.240;16.500;2022-07-30T04:12:18;22.15;;;8.73;;
35418;SDS011;21525;41.240;16.500;2022-07-30T04:14:44;14.52;;;7.63;;
35418;SDS011;21525;41.240;16.500;2022-07-30T04:17:20;18.40;;;7.85;;
35418;SDS011;21525;41.240;16.500;2022-07-30T04:19:52;20.25;;;8.52;;
35418;SDS011;21525;41.240;16.500;2022-07-30T04:22:29;23.77;;;9.05;;
35418;SDS011;21525;41.240;16.500;2022-07-30T04:24:59;20.65;;;8.70;;
35418;SDS011;21525;41.240;16.500;2022-07-30T04:27:26;30.20;;;12.30;;
35418;SDS011;21525;41.240;16.500;2022-07-30T04:29:53;28.77;;;11.43;;
35418;SDS011;21525;41.240;16.500;2022-07-30T04:32:20;26.35;;;9.27;;
35418;SDS011;21525;41.240;16.500;2022-07-30T04:35:09;23.15;;;8.77;;
35418;SDS011;21525;41.240;16.500;2022-07-30T04:37:55;24.70;;;9.05;;
35418;SDS011;21525;41.240;16.500;2022-07-30T04:40:21;18.95;;;9.85;;
35418;SDS011;21525;41.240;16.500;2022-07-30T04:42:47;21.55;;;9.02;;
35418;SDS011;21525;41.240;16.500;2022-07-30T04:45:13;24.00;;;8.82;;
35418;SDS011;21525;41.240;16.500;2022-07-30T04:47:47;16.90;;;8.30;;
35418;SDS011;21525;41.240;16.500;2022-07-30T04:50:33;17.63;;;8.55;;
35418;SDS011;21525;41.240;16.500;2022-07-30T04:53:05;20.88;;;8.38;;
35418;SDS011;21525;41.240;16.500;2022-07-30T04:55:36;22.90;;;8.70;;
35418;SDS011;21525;41.240;16.500;2022-07-30T04:58:06;22.67;;;9.43;;
35418;SDS011;21525;41.240;16.500;2022-07-30T05:00:35;20.88;;;7.95;;
35418;SDS011;21525;41.240;16.500;2022-07-30T05:03:04;18.30;;;8.05;;
35418;SDS011;21525;41.240;16.500;2022-07-30T05:05:33;17.00;;;7.90;;
35418;SDS011;21525;41.240;16.500;2022-07-30T05:08:00;25.80;;;8.77;;
35418;SDS011;21525;41.240;16.500;2022-07-30T05:10:28;16.42;;;8.30;;
35418;SDS011;21525;41.240;16.500;2022-07-30T05:12:55;19.00;;;9.80;;
35418;SDS011;21525;41.240;16.500;2022-07-30T05:15:22;20.27;;;8.20;;
35418;SDS011;21525;41.240;16.500;2022-07-30T05:17:48;17.40;;;8.77;;
35418;SDS011;21525;41.240;16.500;2022-07-30T05:20:15;22.60;;;9.30;;
35418;SDS011;21525;41.240;16.500;2022-07-30T05:23:01;26.45;;;8.88;;
35418;SDS011;21525;41.240;16.500;2022-07-30T05:25:28;33.47;;;8.90;;
35418;SDS011;21525;41.240;16.500;2022-07-30T05:28:03;39.42;;;9.95;;
35418;SDS011;21525;41.240;16.500;2022-07-30T05:30:29;36.00;;;10.07;;
35418;SDS011;21525;41.240;16.500;2022-07-30T05:32:58;33.78;;;8.98;;
35418;SDS011;21525;41.240;16.500;2022-07-30T05:35:24;43.15;;;10.60;;
35418;SDS011;21525;41.240;16.500;2022-07-30T05:37:50;37.80;;;9.38;;
35418;SDS011;21525;41.240;16.500;2022-07-30T05:40:17;32.17;;;10.43;;
35418;SDS011;21525;41.240;16.500;2022-07-30T05:43:18;46.45;;;11.35;;
35418;SDS011;21525;41.240;16.500;2022-07-30T05:45:44;24.58;;;8.52;;
35418;SDS011;21525;41.240;16.500;2022-07-30T05:48:10;33.28;;;8.95;;
35418;SDS011;21525;41.240;16.500;2022-07-30T05:50:36;23.70;;;8.30;;
35418;SDS011;21525;41.240;16.500;2022-07-30T05:53:02;31.80;;;10.75;;
35418;SDS011;21525;41.240;16.500;2022-07-30T05:55:48;31.60;;;9.18;;
35418;SDS011;21525;41.240;16.500;2022-07-30T05:58:37;24.65;;;7.80;;
35418;SDS011;21525;41.240;16.500;2022-07-30T06:01:03;17.98;;;7.10;;
35418;SDS011;21525;41.240;16.500;2022-07-30T06:03:30;13.25;;;7.10;;
35418;SDS011;21525;41.240;16.500;2022-07-30T06:06:16;11.00;;;6.50;;
35418;SDS011;21525;41.240;16.500;2022-07-30T06:08:43;14.18;;;6.78;;
35418;SDS011;21525;41.240;16.500;2022-07-30T06:11:09;19.85;;;7.53;;
35418;SDS011;21525;41.240;16.500;2022-07-30T06:16:03;15.27;;;7.85;;
35418;SDS011;21525;41.240;16.500;2022-07-30T06:18:29;22.42;;;8.73;;
35418;SDS011;21525;41.240;16.500;2022-07-30T06:20:56;19.25;;;9.02;;
35418;SDS011;21525;41.240;16.500;2022-07-30T06:23:28;18.55;;;7.85;;
35418;SDS011;21525;41.240;16.500;2022-07-30T06:26:29;15.77;;;7.20;;
35418;SDS011;21525;41.240;16.500;2022-07-30T06:28:55;10.65;;;6.47;;
35418;SDS011;21525;41.240;16.500;2022-07-30T06:31:27;17.42;;;6.93;;
35418;SDS011;21525;41.240;16.500;2022-07-30T06:33:54;13.52;;;7.03;;
35418;SDS011;21525;41.240;16.500;2022-07-30T06:36:20;14.98;;;8.00;;
35418;SDS011;21525;41.240;16.500;2022-07-30T06:38:53;13.73;;;6.97;;
35418;SDS011;21525;41.240;16.500;2022-07-30T06:41:29;12.32;;;7.25;;
35418;SDS011;21525;41.240;16.500;2022-07-30T06:43:57;13.18;;;6.63;;
35418;SDS011;21525;41.240;16.500;2022-07-30T06:46:42;11.80;;;6.97;;
35418;SDS011;21525;41.240;16.500;2022-07-30T06:49:09;12.13;;;7.38;;
35418;SDS011;21525;41.240;16.500;2022-07-30T06:51:35;8.85;;;6.53;;
35418;SDS011;21525;41.240;16.500;2022-07-30T06:54:01;10.52;;;6.90;;
35418;SDS011;21525;41.240;16.500;2022-07-30T06:56:47;11.90;;;7.07;;
35418;SDS011;21525;41.240;16.500;2022-07-30T06:59:13;9.43;;;5.78;;
35418;SDS011;21525;41.240;16.500;2022-07-30T07:06:45;10.43;;;6.63;;
35418;SDS011;21525;41.240;16.500;2022-07-30T07:09:16;9.05;;;6.70;;
35418;SDS011;21525;41.240;16.500;2022-07-30T07:11:52;9.73;;;6.82;;
35418;SDS011;21525;41.240;16.500;2022-07-30T07:14:18;9.48;;;6.22;;
35418;SDS011;21525;41.240;16.500;2022-07-30T07:16:44;9.98;;;5.95;;
35418;SDS011;21525;41.240;16.500;2022-07-30T07:19:33;11.18;;;6.78;;
35418;SDS011;21525;41.240;16.500;2022-07-30T07:21:59;9.70;;;6.10;;
35418;SDS011;21525;41.240;16.500;2022-07-30T07:24:25;11.35;;;6.60;;
35418;SDS011;21525;41.240;16.500;2022-07-30T07:26:58;10.00;;;6.03;;
35418;SDS011;21525;41.240;16.500;2022-07-30T07:29:24;7.80;;;5.75;;
35418;SDS011;21525;41.240;16.500;2022-07-30T07:31:50;8.93;;;6.30;;
35418;SDS011;21525;41.240;16.500;2022-07-30T07:34:16;9.10;;;6.35;;
35418;SDS011;21525;41.240;16.500;2022-07-30T07:36:43;10.63;;;6.30;;
35418;SDS011;21525;41.240;16.500;2022-07-30T07:39:09;12.38;;;6.80;;
35418;SDS011;21525;41.240;16.500;2022-07-30T07:41:37;9.70;;;7.30;;
35418;SDS011;21525;41.240;16.500;2022-07-30T07:44:04;10.95;;;7.65;;
35418;SDS011;21525;41.240;16.500;2022-07-30T07:48:59;10.77;;;7.45;;
35418;SDS011;21525;41.240;16.500;2022-07-30T07:51:33;8.50;;;6.72;;
35418;SDS011;21525;41.240;16.500;2022-07-30T07:54:02;8.27;;;6.32;;
35418;SDS011;21525;41.240;16.500;2022-07-30T07:56:28;10.07;;;6.85;;
35418;SDS011;21525;41.240;16.500;2022-07-30T07:58:55;11.40;;;7.22;;
35418;SDS011;21525;41.240;16.500;2022-07-30T08:01:22;9.88;;;6.40;;
35418;SDS011;21525;41.240;16.500;2022-07-30T08:04:07;10.70;;;6.65;;
35418;SDS011;21525;41.240;16.500;2022-07-30T08:07:11;7.45;;;5.95;;
35418;SDS011;21525;41.240;16.500;2022-07-30T08:09:56;12.25;;;7.30;;
35418;SDS011;21525;41.240;16.500;2022-07-30T08:12:36;9.40;;;6.80;;
35418;SDS011;21525;41.240;16.500;2022-07-30T08:15:21;15.45;;;6.88;;
35418;SDS011;21525;41.240;16.500;2022-07-30T08:18:10;9.40;;;6.72;;
35418;SDS011;21525;41.240;16.500;2022-07-30T08:20:46;10.32;;;7.07;;
35418;SDS011;21525;41.240;16.500;2022-07-30T08:23:13;11.00;;;7.03;;
35418;SDS011;21525;41.240;16.500;2022-07-30T08:25:39;9.18;;;7.68;;
35418;SDS011;21525;41.240;16.500;2022-07-30T08:28:05;9.82;;;7.45;;
35418;SDS011;21525;41.240;16.500;2022-07-30T08:30:31;9.52;;;6.82;;
35418;SDS011;21525;41.240;16.500;2022-07-30T08:32:57;11.38;;;8.05;;
35418;SDS011;21525;41.240;16.500;2022-07-30T08:35:23;9.65;;;7.20;;
35418;SDS011;21525;41.240;16.500;2022-07-30T08:37:49;12.38;;;7.40;;
35418;SDS011;21525;41.240;16.500;2022-07-30T08:40:18;13.93;;;7.50;;
35418;SDS011;21525;41.240;16.500;2022-07-30T08:42:58;10.52;;;7.50;;
35418;SDS011;21525;41.240;16.500;2022-07-30T08:45:25;12.13;;;7.60;;
35418;SDS011;21525;41.240;16.500;2022-07-30T08:47:53;13.73;;;8.18;;
35418;SDS011;21525;41.240;16.500;2022-07-30T08:50:30;13.27;;;7.80;;
35418;SDS011;21525;41.240;16.500;2022-07-30T08:53:19;13.93;;;7.43;;
35418;SDS011;21525;41.240;16.500;2022-07-30T08:55:46;13.23;;;8.00;;
35418;SDS011;21525;41.240;16.500;2022-07-30T08:58:15;11.88;;;8.07;;
35418;SDS011;21525;41.240;16.500;2022-07-30T09:00:52;12.27;;;7.80;;
35418;SDS011;21525;41.240;16.500;2022-07-30T09:03:18;12.85;;;8.27;;
35418;SDS011;21525;41.240;16.500;2022-07-30T09:05:44;13.48;;;7.68;;
35418;SDS011;21525;41.240;16.500;2022-07-30T09:08:11;12.13;;;7.93;;
35418;SDS011;21525;41.240;16.500;2022-07-30T09:10:37;13.93;;;8.50;;
35418;SDS011;21525;41.240;16.500;2022-07-30T09:13:03;10.07;;;7.45;;
35418;SDS011;21525;41.240;16.500;2022-07-30T09:15:29;11.90;;;7.88;;
35418;SDS011;21525;41.240;16.500;2022-07-30T09:17:58;11.15;;;7.82;;
35418;SDS011;21525;41.240;16.500;2022-07-30T09:20:33;12.15;;;8.52;;
35418;SDS011;21525;41.240;16.500;2022-07-30T09:23:04;14.75;;;7.80;;
35418;SDS011;21525;41.240;16.500;2022-07-30T09:26:06;11.85;;;7.65;;
35418;SDS011;21525;41.240;16.500;2022-07-30T09:28:41;10.85;;;8.05;;
35418;SDS011;21525;41.240;16.500;2022-07-30T09:31:13;14.90;;;8.10;;
35418;SDS011;21525;41.240;16.500;2022-07-30T09:33:58;12.63;;;8.18;;
35418;SDS011;21525;41.240;16.500;2022-07-30T09:36:58;18.40;;;7.90;;
35418;SDS011;21525;41.240;16.500;2022-07-30T09:39:45;15.60;;;8.45;;
35418;SDS011;21525;41.240;16.500;2022-07-30T09:42:29;11.52;;;7.80;;
35418;SDS011;21525;41.240;16.500;2022-07-30T09:47:34;9.60;;;7.20;;
35418;SDS011;21525;41.240;16.500;2022-07-30T09:52:29;11.20;;;7.75;;
35418;SDS011;21525;41.240;16.500;2022-07-30T09:54:55;10.07;;;7.85;;
35418;SDS011;21525;41.240;16.500;2022-07-30T09:57:23;13.15;;;8.07;;
35418;SDS011;21525;41.240;16.500;2022-07-30T09:59:49;12.48;;;7.68;;
35418;SDS011;21525;41.240;16.500;2022-07-30T10:02:15;11.93;;;7.88;;
35418;SDS011;21525;41.240;16.500;2022-07-30T10:05:11;10.80;;;7.70;;
35418;SDS011;21525;41.240;16.500;2022-07-30T10:07:38;17.88;;;8.60;;
35418;SDS011;21525;41.240;16.500;2022-07-30T10:10:12;11.60;;;8.07;;
35418;SDS011;21525;41.240;16.500;2022-07-30T10:12:38;11.43;;;7.95;;
35418;SDS011;21525;41.240;16.500;2022-07-30T10:15:05;13.20;;;7.43;;
35418;SDS011;21525;41.240;16.500;2022-07-30T10:17:33;11.63;;;8.13;;
35418;SDS011;21525;41.240;16.500;2022-07-30T10:20:19;10.88;;;7.70;;
35418;SDS011;21525;41.240;16.500;2022-07-30T10:23:14;12.32;;;7.90;;
35418;SDS011;21525;41.240;16.500;2022-07-30T10:25:59;18.30;;;8.23;;
35418;SDS011;21525;41.240;16.500;2022-07-30T10:28:52;12.88;;;7.68;;
35418;SDS011;21525;41.240;16.500;2022-07-30T10:31:18;13.77;;;8.23;;
35418;SDS011;21525;41.240;16.500;2022-07-30T10:33:44;11.10;;;8.10;;
35418;SDS011;21525;41.240;16.500;2022-07-30T10:36:10;13.85;;;7.72;;
35418;SDS011;21525;41.240;16.500;2022-07-30T10:38:37;12.25;;;8.05;;
35418;SDS011;21525;41.240;16.500;2022-07-30T10:48:47;14.52;;;7.88;;
35418;SDS011;21525;41.240;16.500;2022-07-30T10:51:13;13.50;;;7.95;;
35418;SDS011;21525;41.240;16.500;2022-07-30T10:53:43;11.35;;;7.05;;
35418;SDS011;21525;41.240;16.500;2022-07-30T10:58:55;12.82;;;8.10;;
35418;SDS011;21525;41.240;16.500;2022-07-30T11:01:22;11.20;;;8.55;;
35418;SDS011;21525;41.240;16.500;2022-07-30T11:09:48;13.93;;;8.00;;
35418;SDS011;21525;41.240;16.500;2022-07-30T11:12:14;11.93;;;8.70;;
35418;SDS011;21525;41.240;16.500;2022-07-30T11:15:07;12.95;;;9.65;;
35418;SDS011;21525;41.240;16.500;2022-07-30T11:20:30;11.73;;;7.88;;
35418;SDS011;21525;41.240;16.500;2022-07-30T11:25:45;12.80;;;7.90;;
35418;SDS011;21525;41.240;16.500;2022-07-30T11:42:32;11.18;;;7.65;;
35418;SDS011;21525;41.240;16.500;2022-07-30T11:47:45;13.70;;;7.57;;
35418;SDS011;21525;41.240;16.500;2022-07-30T11:50:18;14.27;;;8.52;;
35418;SDS011;21525;41.240;16.500;2022-07-30T11:52:51;18.98;;;8.48;;
35418;SDS011;21525;41.240;16.500;2022-07-30T11:55:21;14.57;;;8.40;;
35418;SDS011;21525;41.240;16.500;2022-07-30T11:57:54;12.02;;;8.55;;
35418;SDS011;21525;41.240;16.500;2022-07-30T12:00:22;17.10;;;8.02;;
35418;SDS011;21525;41.240;16.500;2022-07-30T12:02:49;13.27;;;8.60;;
35418;SDS011;21525;41.240;16.500;2022-07-30T12:05:15;13.60;;;8.27;;
35418;SDS011;21525;41.240;16.500;2022-07-30T12:07:48;15.57;;;8.63;;
35418;SDS011;21525;41.240;16.500;2022-07-30T12:10:14;16.50;;;8.55;;
35418;SDS011;21525;41.240;16.500;2022-07-30T12:12:42;15.90;;;9.82;;
35418;SDS011;21525;41.240;16.500;2022-07-30T12:15:09;15.07;;;9.30;;
35418;SDS011;21525;41.240;16.500;2022-07-30T12:17:52;14.40;;;9.30;;
35418;SDS011;21525;41.240;16.500;2022-07-30T12:20:18;14.52;;;8.82;;
35418;SDS011;21525;41.240;16.500;2022-07-30T12:22:45;14.98;;;9.60;;
35418;SDS011;21525;41.240;16.500;2022-07-30T12:25:11;16.13;;;9.60;;
35418;SDS011;21525;41.240;16.500;2022-07-30T12:27:38;17.08;;;9.50;;
35418;SDS011;21525;41.240;16.500;2022-07-30T12:30:05;13.50;;;9.25;;
35418;SDS011;21525;41.240;16.500;2022-07-30T12:32:33;15.10;;;9.20;;
35418;SDS011;21525;41.240;16.500;2022-07-30T12:35:03;13.63;;;8.48;;
35418;SDS011;21525;41.240;16.500;2022-07-30T12:37:29;13.70;;;8.60;;
35418;SDS011;21525;41.240;16.500;2022-07-30T12:40:11;14.48;;;8.98;;
35418;SDS011;21525;41.240;16.500;2022-07-30T12:42:49;13.52;;;9.32;;
35418;SDS011;21525;41.240;16.500;2022-07-30T12:45:25;12.15;;;8.48;;
35418;SDS011;21525;41.240;16.500;2022-07-30T12:47:52;14.00;;;9.50;;
35418;SDS011;21525;41.240;16.500;2022-07-30T12:50:18;13.23;;;9.18;;
35418;SDS011;21525;41.240;16.500;2022-07-30T12:55:15;14.75;;;9.35;;
35418;SDS011;21525;41.240;16.500;2022-07-30T13:00:30;12.25;;;8.75;;
35418;SDS011;21525;41.240;16.500;2022-07-30T13:02:58;12.00;;;8.80;;
35418;SDS011;21525;41.240;16.500;2022-07-30T13:05:43;13.27;;;9.32;;
35418;SDS011;21525;41.240;16.500;2022-07-30T13:08:14;13.10;;;9.50;;
35418;SDS011;21525;41.240;16.500;2022-07-30T13:10:56;12.15;;;9.18;;
35418;SDS011;21525;41.240;16.500;2022-07-30T13:13:27;12.48;;;8.75;;
35418;SDS011;21525;41.240;16.500;2022-07-30T13:15:57;11.20;;;8.43;;
35418;SDS011;21525;41.240;16.500;2022-07-30T13:18:26;13.80;;;9.10;;
35418;SDS011;21525;41.240;16.500;2022-07-30T13:20:54;11.82;;;9.02;;
35418;SDS011;21525;41.240;16.500;2022-07-30T13:23:21;14.30;;;8.65;;
35418;SDS011;21525;41.240;16.500;2022-07-30T13:25:47;15.45;;;8.40;;
35418;SDS011;21525;41.240;16.500;2022-07-30T13:28:13;14.23;;;8.55;;
35418;SDS011;21525;41.240;16.500;2022-07-30T13:30:39;14.30;;;8.63;;
35418;SDS011;21525;41.240;16.500;2022-07-30T13:33:05;12.02;;;8.73;;
35418;SDS011;21525;41.240;16.500;2022-07-30T13:35:31;14.55;;;8.75;;
35418;SDS011;21525;41.240;16.500;2022-07-30T13:37:57;17.48;;;8.63;;
35418;SDS011;21525;41.240;16.500;2022-07-30T13:40:26;11.82;;;8.23;;
35418;SDS011;21525;41.240;16.500;2022-07-30T13:42:52;12.20;;;8.80;;
35418;SDS011;21525;41.240;16.500;2022-07-30T13:45:19;13.23;;;8.15;;
35418;SDS011;21525;41.240;16.500;2022-07-30T13:47:44;14.38;;;8.82;;
35418;SDS011;21525;41.240;16.500;2022-07-30T13:50:10;14.30;;;7.90;;
35418;SDS011;21525;41.240;16.500;2022-07-30T13:52:36;13.48;;;8.77;;
35418;SDS011;21525;41.240;16.500;2022-07-30T13:55:02;18.20;;;9.27;;
35418;SDS011;21525;41.240;16.500;2022-07-30T13:57:28;13.43;;;8.23;;
35418;SDS011;21525;41.240;16.500;2022-07-30T13:59:54;13.80;;;8.35;;
35418;SDS011;21525;41.240;16.500;2022-07-30T14:02:19;13.65;;;9.05;;
35418;SDS011;21525;41.240;16.500;2022-07-30T14:04:45;15.77;;;8.82;;
35418;SDS011;21525;41.240;16.500;2022-07-30T14:07:11;16.90;;;9.10;;
35418;SDS011;21525;41.240;16.500;2022-07-30T14:09:37;16.17;;;10.93;;
35418;SDS011;21525;41.240;16.500;2022-07-30T14:12:04;15.55;;;9.20;;
35418;SDS011;21525;41.240;16.500;2022-07-30T14:14:30;16.23;;;9.38;;
35418;SDS011;21525;41.240;16.500;2022-07-30T14:16:56;14.80;;;9.50;;
35418;SDS011;21525;41.240;16.500;2022-07-30T14:19:22;13.70;;;9.27;;
35418;SDS011;21525;41.240;16.500;2022-07-30T14:21:48;14.25;;;9.10;;
35418;SDS011;21525;41.240;16.500;2022-07-30T14:24:14;12.38;;;9.00;;
35418;SDS011;21525;41.240;16.500;2022-07-30T14:26:41;13.48;;;8.65;;
35418;SDS011;21525;41.240;16.500;2022-07-30T14:29:08;15.95;;;8.75;;
35418;SDS011;21525;41.240;16.500;2022-07-30T14:31:35;18.70;;;8.70;;
35418;SDS011;21525;41.240;16.500;2022-07-30T14:34:02;13.57;;;8.40;;
35418;SDS011;21525;41.240;16.500;2022-07-30T14:36:28;14.27;;;9.13;;
35418;SDS011;21525;41.240;16.500;2022-07-30T14:38:58;9.80;;;8.40;;
35418;SDS011;21525;41.240;16.500;2022-07-30T14:41:25;13.30;;;8.50;;
35418;SDS011;21525;41.240;16.500;2022-07-30T14:43:51;18.58;;;9.02;;
35418;SDS011;21525;41.240;16.500;2022-07-30T14:46:17;10.95;;;8.25;;
35418;SDS011;21525;41.240;16.500;2022-07-30T14:48:44;10.55;;;8.25;;
35418;SDS011;21525;41.240;16.500;2022-07-30T14:51:10;10.50;;;8.75;;
35418;SDS011;21525;41.240;16.500;2022-07-30T14:53:35;11.75;;;8.95;;
35418;SDS011;21525;41.240;16.500;2022-07-30T14:56:02;13.15;;;8.07;;
35418;SDS011;21525;41.240;16.500;2022-07-30T14:58:28;11.77;;;8.50;;
35418;SDS011;21525;41.240;16.500;2022-07-30T15:00:54;11.10;;;7.57;;
35418;SDS011;21525;41.240;16.500;2022-07-30T15:03:19;9.43;;;7.40;;
35418;SDS011;21525;41.240;16.500;2022-07-30T15:05:45;9.30;;;6.82;;
35418;SDS011;21525;41.240;16.500;2022-07-30T15:08:11;11.75;;;7.40;;
35418;SDS011;21525;41.240;16.500;2022-07-30T15:10:38;15.35;;;7.10;;
35418;SDS011;21525;41.240;16.500;2022-07-30T15:13:04;8.45;;;6.10;;
35418;SDS011;21525;41.240;16.500;2022-07-30T15:15:30;7.53;;;6.25;;
35418;SDS011;21525;41.240;16.500;2022-07-30T15:17:57;9.32;;;6.97;;
35418;SDS011;21525;41.240;16.500;2022-07-30T15:20:23;9.77;;;6.93;;
35418;SDS011;21525;41.240;16.500;2022-07-30T15:22:49;7.70;;;6.85;;
35418;SDS011;21525;41.240;16.500;2022-07-30T15:25:15;11.88;;;7.75;;
35418;SDS011;21525;41.240;16.500;2022-07-30T15:27:41;9.45;;;6.88;;
35418;SDS011;21525;41.240;16.500;2022-07-30T15:30:07;8.63;;;6.95;;
35418;SDS011;21525;41.240;16.500;2022-07-30T15:32:33;12.30;;;7.47;;
35418;SDS011;21525;41.240;16.500;2022-07-30T15:34:59;8.23;;;6.68;;
35418;SDS011;21525;41.240;16.500;2022-07-30T15:37:25;11.18;;;6.50;;
35418;SDS011;21525;41.240;16.500;2022-07-30T15:39:51;10.25;;;6.43;;
35418;SDS011;21525;41.240;16.500;2022-07-30T15:42:17;7.78;;;6.20;;